sensor_id;sensor_type;location;lat;lon;timestamp;temperature;humidity
57566;DHT22;63999;43.882;-0.310;2023-07-13T00:00:13;23.00;69.90
57566;DHT22;63999;43.882;-0.310;2023-07-13T00:02:49;22.90;69.90
57566;DHT22;63999;43.882;-0.310;2023-07-13T00:05:29;22.90;69.90
57566;DHT22;63999;43.882;-0.310;2023-07-13T00:08:00;22.90;69.80
57566;DHT22;63999;43.882;-0.310;2023-07-13T00:10:29;22.80;69.80
57566;DHT22;63999;43.882;-0.310;2023-07-13T00:12:57;22.80;69.90
57566;DHT22;63999;43.882;-0.310;2023-07-13T00:15:26;22.80;69.80
57566;DHT22;63999;43.882;-0.310;2023-07-13T00:18:02;22.80;70.00
57566;DHT22;63999;43.882;-0.310;2023-07-13T00:20:31;22.80;69.80
57566;DHT22;63999;43.882;-0.310;2023-07-13T00:22:58;22.70;69.80
57566;DHT22;63999;43.882;-0.310;2023-07-13T00:25:26;22.70;69.80
57566;DHT22;63999;43.882;-0.310;2023-07-13T00:27:55;22.70;69.90
57566;DHT22;63999;43.882;-0.310;2023-07-13T00:30:24;22.70;69.90
57566;DHT22;63999;43.882;-0.310;2023-07-13T00:32:53;22.70;69.80
57566;DHT22;63999;43.882;-0.310;2023-07-13T00:35:29;22.60;69.80
57566;DHT22;63999;43.882;-0.310;2023-07-13T00:37:58;22.60;69.70
57566;DHT22;63999;43.882;-0.310;2023-07-13T00:40:30;22.60;69.90
57566;DHT22;63999;43.882;-0.310;2023-07-13T00:43:01;22.60;69.80
57566;DHT22;63999;43.882;-0.310;2023-07-13T00:47:59;22.50;70.00
57566;DHT22;63999;43.882;-0.310;2023-07-13T00:50:28;22.50;70.20
57566;DHT22;63999;43.882;-0.310;2023-07-13T00:52:58;22.60;70.20
57566;DHT22;63999;43.882;-0.310;2023-07-13T00:55:29;22.50;70.10
57566;DHT22;63999;43.882;-0.310;2023-07-13T00:58:04;22.50;70.10
57566;DHT22;63999;43.882;-0.310;2023-07-13T01:00:38;22.50;70.40
57566;DHT22;63999;43.882;-0.310;2023-07-13T01:03:07;22.50;70.20
57566;DHT22;63999;43.882;-0.310;2023-07-13T01:05:37;22.50;70.30
57566;DHT22;63999;43.882;-0.310;2023-07-13T01:08:06;22.50;70.30
57566;DHT22;63999;43.882;-0.310;2023-07-13T01:10:35;22.50;70.20
57566;DHT22;63999;43.882;-0.310;2023-07-13T01:13:08;22.50;70.20
57566;DHT22;63999;43.882;-0.310;2023-07-13T01:15:44;22.50;70.40
57566;DHT22;63999;43.882;-0.310;2023-07-13T01:18:24;22.50;70.30
57566;DHT22;63999;43.882;-0.310;2023-07-13T01:21:06;22.50;70.30
57566;DHT22;63999;43.882;-0.310;2023-07-13T01:23:35;22.50;70.40
57566;DHT22;63999;43.882;-0.310;2023-07-13T01:26:04;22.50;70.40
57566;DHT22;63999;43.882;-0.310;2023-07-13T01:28:35;22.50;70.50
57566;DHT22;63999;43.882;-0.310;2023-07-13T01:31:04;22.40;70.50
57566;DHT22;63999;43.882;-0.310;2023-07-13T01:33:33;22.30;70.50
57566;DHT22;63999;43.882;-0.310;2023-07-13T01:36:02;22.40;70.60
57566;DHT22;63999;43.882;-0.310;2023-07-13T01:38:39;22.40;70.60
57566;DHT22;63999;43.882;-0.310;2023-07-13T01:41:10;22.40;70.70
57566;DHT22;63999;43.882;-0.310;2023-07-13T01:43:41;22.40;70.70
57566;DHT22;63999;43.882;-0.310;2023-07-13T01:46:10;22.30;70.80
57566;DHT22;63999;43.882;-0.310;2023-07-13T01:48:41;22.30;70.90
57566;DHT22;63999;43.882;-0.310;2023-07-13T01:51:13;22.30;70.90
57566;DHT22;63999;43.882;-0.310;2023-07-13T01:53:42;22.30;71.00
57566;DHT22;63999;43.882;-0.310;2023-07-13T01:56:12;22.30;71.10
57566;DHT22;63999;43.882;-0.310;2023-07-13T01:58:40;22.30;71.10
57566;DHT22;63999;43.882;-0.310;2023-07-13T02:01:09;22.30;71.20
57566;DHT22;63999;43.882;-0.310;2023-07-13T02:03:41;22.20;71.30
57566;DHT22;63999;43.882;-0.310;2023-07-13T02:06:15;22.20;71.30
57566;DHT22;63999;43.882;-0.310;2023-07-13T02:08:46;22.20;71.40
57566;DHT22;63999;43.882;-0.310;2023-07-13T02:11:15;22.20;71.30
57566;DHT22;63999;43.882;-0.310;2023-07-13T02:13:49;22.20;71.30
57566;DHT22;63999;43.882;-0.310;2023-07-13T02:16:18;22.20;71.40
57566;DHT22;63999;43.882;-0.310;2023-07-13T02:18:47;22.20;71.40
57566;DHT22;63999;43.882;-0.310;2023-07-13T02:21:22;22.20;71.40
57566;DHT22;63999;43.882;-0.310;2023-07-13T02:23:57;22.20;71.50
57566;DHT22;63999;43.882;-0.310;2023-07-13T02:26:26;22.10;71.50
57566;DHT22;63999;43.882;-0.310;2023-07-13T02:28:57;22.10;71.50
57566;DHT22;63999;43.882;-0.310;2023-07-13T02:31:23;22.10;71.50
57566;DHT22;63999;43.882;-0.310;2023-07-13T02:33:54;22.10;71.60
57566;DHT22;63999;43.882;-0.310;2023-07-13T02:36:23;22.10;71.50
57566;DHT22;63999;43.882;-0.310;2023-07-13T02:39:00;22.10;71.60
57566;DHT22;63999;43.882;-0.310;2023-07-13T02:41:31;22.10;71.70
57566;DHT22;63999;43.882;-0.310;2023-07-13T02:44:02;22.10;71.70
57566;DHT22;63999;43.882;-0.310;2023-07-13T02:46:39;22.10;71.70
57566;DHT22;63999;43.882;-0.310;2023-07-13T02:49:13;22.10;71.60
57566;DHT22;63999;43.882;-0.310;2023-07-13T02:51:42;22.10;71.60
57566;DHT22;63999;43.882;-0.310;2023-07-13T02:54:11;22.10;71.60
57566;DHT22;63999;43.882;-0.310;2023-07-13T02:56:41;22.00;71.70
57566;DHT22;63999;43.882;-0.310;2023-07-13T02:59:09;22.10;71.70
57566;DHT22;63999;43.882;-0.310;2023-07-13T03:01:40;22.00;71.70
57566;DHT22;63999;43.882;-0.310;2023-07-13T03:04:09;22.00;71.80
57566;DHT22;63999;43.882;-0.310;2023-07-13T03:06:40;22.00;71.60
57566;DHT22;63999;43.882;-0.310;2023-07-13T03:09:08;22.00;71.70
57566;DHT22;63999;43.882;-0.310;2023-07-13T03:11:39;22.00;71.80
57566;DHT22;63999;43.882;-0.310;2023-07-13T03:14:08;22.00;71.90
57566;DHT22;63999;43.882;-0.310;2023-07-13T03:16:37;22.00;71.80
57566;DHT22;63999;43.882;-0.310;2023-07-13T03:19:11;22.00;71.80
57566;DHT22;63999;43.882;-0.310;2023-07-13T03:21:40;22.00;71.70
57566;DHT22;63999;43.882;-0.310;2023-07-13T03:24:10;22.00;71.80
57566;DHT22;63999;43.882;-0.310;2023-07-13T03:26:39;22.00;71.80
57566;DHT22;63999;43.882;-0.310;2023-07-13T03:29:10;22.00;71.80
57566;DHT22;63999;43.882;-0.310;2023-07-13T03:31:42;22.00;71.90
57566;DHT22;63999;43.882;-0.310;2023-07-13T03:34:10;21.90;71.90
57566;DHT22;63999;43.882;-0.310;2023-07-13T03:36:44;21.90;71.90
57566;DHT22;63999;43.882;-0.310;2023-07-13T03:39:15;21.90;72.00
57566;DHT22;63999;43.882;-0.310;2023-07-13T03:41:46;21.90;71.90
57566;DHT22;63999;43.882;-0.310;2023-07-13T03:44:17;21.90;72.00
57566;DHT22;63999;43.882;-0.310;2023-07-13T03:46:44;21.90;72.00
57566;DHT22;63999;43.882;-0.310;2023-07-13T03:49:15;21.90;72.00
57566;DHT22;63999;43.882;-0.310;2023-07-13T03:51:49;21.90;72.00
57566;DHT22;63999;43.882;-0.310;2023-07-13T03:54:23;21.90;72.10
57566;DHT22;63999;43.882;-0.310;2023-07-13T03:56:54;21.90;72.20
57566;DHT22;63999;43.882;-0.310;2023-07-13T03:59:23;21.90;72.30
57566;DHT22;63999;43.882;-0.310;2023-07-13T04:01:55;21.80;72.30
57566;DHT22;63999;43.882;-0.310;2023-07-13T04:04:26;21.80;72.30
57566;DHT22;63999;43.882;-0.310;2023-07-13T04:06:51;21.80;72.40
57566;DHT22;63999;43.882;-0.310;2023-07-13T04:09:23;21.80;72.50
57566;DHT22;63999;43.882;-0.310;2023-07-13T04:11:51;21.80;72.60
57566;DHT22;63999;43.882;-0.310;2023-07-13T04:14:25;21.70;72.60
57566;DHT22;63999;43.882;-0.310;2023-07-13T04:16:53;21.70;72.50
57566;DHT22;63999;43.882;-0.310;2023-07-13T04:19:23;21.80;72.50
57566;DHT22;63999;43.882;-0.310;2023-07-13T04:21:57;21.80;72.50
57566;DHT22;63999;43.882;-0.310;2023-07-13T04:24:32;21.80;72.50
57566;DHT22;63999;43.882;-0.310;2023-07-13T04:27:06;21.80;72.70
57566;DHT22;63999;43.882;-0.310;2023-07-13T04:29:48;21.70;72.70
57566;DHT22;63999;43.882;-0.310;2023-07-13T04:32:17;21.70;72.90
57566;DHT22;63999;43.882;-0.310;2023-07-13T04:34:46;21.70;72.90
57566;DHT22;63999;43.882;-0.310;2023-07-13T04:37:17;21.70;72.80
57566;DHT22;63999;43.882;-0.310;2023-07-13T04:39:47;21.70;72.80
57566;DHT22;63999;43.882;-0.310;2023-07-13T04:42:19;21.70;72.90
57566;DHT22;63999;43.882;-0.310;2023-07-13T04:44:51;21.70;72.90
57566;DHT22;63999;43.882;-0.310;2023-07-13T04:47:22;21.70;73.00
57566;DHT22;63999;43.882;-0.310;2023-07-13T04:49:50;21.70;73.10
57566;DHT22;63999;43.882;-0.310;2023-07-13T04:52:24;21.70;73.10
57566;DHT22;63999;43.882;-0.310;2023-07-13T04:54:52;21.70;73.20
57566;DHT22;63999;43.882;-0.310;2023-07-13T04:57:23;21.70;73.20
57566;DHT22;63999;43.882;-0.310;2023-07-13T04:59:52;21.70;73.20
57566;DHT22;63999;43.882;-0.310;2023-07-13T05:02:25;21.60;73.20
57566;DHT22;63999;43.882;-0.310;2023-07-13T05:05:02;21.60;73.30
57566;DHT22;63999;43.882;-0.310;2023-07-13T05:07:36;21.60;73.20
57566;DHT22;63999;43.882;-0.310;2023-07-13T05:10:05;21.60;73.20
57566;DHT22;63999;43.882;-0.310;2023-07-13T05:12:36;21.60;73.20
57566;DHT22;63999;43.882;-0.310;2023-07-13T05:15:09;21.60;73.40
57566;DHT22;63999;43.882;-0.310;2023-07-13T05:17:37;21.50;73.40
57566;DHT22;63999;43.882;-0.310;2023-07-13T05:20:09;21.50;73.60
57566;DHT22;63999;43.882;-0.310;2023-07-13T05:22:35;21.50;73.60
57566;DHT22;63999;43.882;-0.310;2023-07-13T05:25:07;21.50;73.60
57566;DHT22;63999;43.882;-0.310;2023-07-13T05:27:34;21.50;73.60
57566;DHT22;63999;43.882;-0.310;2023-07-13T05:30:03;21.50;73.70
57566;DHT22;63999;43.882;-0.310;2023-07-13T05:32:35;21.50;73.80
57566;DHT22;63999;43.882;-0.310;2023-07-13T05:35:00;21.50;73.80
57566;DHT22;63999;43.882;-0.310;2023-07-13T05:37:29;21.50;73.80
57566;DHT22;63999;43.882;-0.310;2023-07-13T05:39:58;21.50;73.80
57566;DHT22;63999;43.882;-0.310;2023-07-13T05:42:29;21.50;73.90
57566;DHT22;63999;43.882;-0.310;2023-07-13T05:44:59;21.50;73.90
57566;DHT22;63999;43.882;-0.310;2023-07-13T05:47:31;21.50;74.00
57566;DHT22;63999;43.882;-0.310;2023-07-13T05:50:02;21.50;73.80
57566;DHT22;63999;43.882;-0.310;2023-07-13T05:52:36;21.50;73.90
57566;DHT22;63999;43.882;-0.310;2023-07-13T05:55:09;21.50;74.00
57566;DHT22;63999;43.882;-0.310;2023-07-13T05:57:40;21.50;73.90
57566;DHT22;63999;43.882;-0.310;2023-07-13T06:00:06;21.50;73.90
57566;DHT22;63999;43.882;-0.310;2023-07-13T06:02:43;21.60;73.80
57566;DHT22;63999;43.882;-0.310;2023-07-13T06:05:11;21.60;73.80
57566;DHT22;63999;43.882;-0.310;2023-07-13T06:07:45;21.60;73.80
57566;DHT22;63999;43.882;-0.310;2023-07-13T06:10:11;21.60;73.80
57566;DHT22;63999;43.882;-0.310;2023-07-13T06:12:42;21.50;73.90
57566;DHT22;63999;43.882;-0.310;2023-07-13T06:15:11;21.50;73.80
57566;DHT22;63999;43.882;-0.310;2023-07-13T06:17:37;21.60;73.90
57566;DHT22;63999;43.882;-0.310;2023-07-13T06:20:06;21.50;73.70
57566;DHT22;63999;43.882;-0.310;2023-07-13T06:22:35;21.70;73.60
57566;DHT22;63999;43.882;-0.310;2023-07-13T06:25:03;21.70;73.50
57566;DHT22;63999;43.882;-0.310;2023-07-13T06:27:34;21.60;73.50
57566;DHT22;63999;43.882;-0.310;2023-07-13T06:30:00;21.50;73.40
57566;DHT22;63999;43.882;-0.310;2023-07-13T06:32:31;21.50;73.40
57566;DHT22;63999;43.882;-0.310;2023-07-13T06:34:59;21.60;73.30
57566;DHT22;63999;43.882;-0.310;2023-07-13T06:37:33;21.50;73.40
57566;DHT22;63999;43.882;-0.310;2023-07-13T06:40:01;21.60;73.40
57566;DHT22;63999;43.882;-0.310;2023-07-13T06:42:34;21.50;73.40
57566;DHT22;63999;43.882;-0.310;2023-07-13T06:45:04;21.50;73.50
57566;DHT22;63999;43.882;-0.310;2023-07-13T06:47:35;21.70;74.60
57566;DHT22;63999;43.882;-0.310;2023-07-13T06:50:09;21.70;73.40
57566;DHT22;63999;43.882;-0.310;2023-07-13T06:52:38;21.70;73.40
57566;DHT22;63999;43.882;-0.310;2023-07-13T06:55:11;21.70;73.30
57566;DHT22;63999;43.882;-0.310;2023-07-13T06:57:40;21.70;73.40
57566;DHT22;63999;43.882;-0.310;2023-07-13T07:00:10;21.70;73.40
57566;DHT22;63999;43.882;-0.310;2023-07-13T07:02:38;21.70;73.50
57566;DHT22;63999;43.882;-0.310;2023-07-13T07:05:09;21.70;73.40
57566;DHT22;63999;43.882;-0.310;2023-07-13T07:07:38;21.70;73.30
57566;DHT22;63999;43.882;-0.310;2023-07-13T07:10:07;21.70;74.60
57566;DHT22;63999;43.882;-0.310;2023-07-13T07:12:49;21.90;73.40
57566;DHT22;63999;43.882;-0.310;2023-07-13T07:15:22;21.80;73.40
57566;DHT22;63999;43.882;-0.310;2023-07-13T07:17:54;21.80;73.50
57566;DHT22;63999;43.882;-0.310;2023-07-13T07:20:25;21.70;73.30
57566;DHT22;63999;43.882;-0.310;2023-07-13T07:22:56;21.70;73.80
57566;DHT22;63999;43.882;-0.310;2023-07-13T07:25:25;21.80;74.00
57566;DHT22;63999;43.882;-0.310;2023-07-13T07:27:51;21.90;73.70
57566;DHT22;63999;43.882;-0.310;2023-07-13T07:30:19;21.90;73.40
57566;DHT22;63999;43.882;-0.310;2023-07-13T07:32:45;21.90;73.20
57566;DHT22;63999;43.882;-0.310;2023-07-13T07:35:14;21.80;73.40
57566;DHT22;63999;43.882;-0.310;2023-07-13T07:37:46;21.80;73.40
57566;DHT22;63999;43.882;-0.310;2023-07-13T07:40:19;21.90;74.00
57566;DHT22;63999;43.882;-0.310;2023-07-13T07:42:47;21.90;73.40
57566;DHT22;63999;43.882;-0.310;2023-07-13T07:45:18;21.90;73.20
57566;DHT22;63999;43.882;-0.310;2023-07-13T07:47:47;21.90;73.60
57566;DHT22;63999;43.882;-0.310;2023-07-13T07:50:16;21.90;73.00
57566;DHT22;63999;43.882;-0.310;2023-07-13T07:52:46;21.90;73.30
57566;DHT22;63999;43.882;-0.310;2023-07-13T07:55:18;21.90;73.80
57566;DHT22;63999;43.882;-0.310;2023-07-13T07:57:56;21.90;73.50
57566;DHT22;63999;43.882;-0.310;2023-07-13T08:00:22;22.00;74.00
57566;DHT22;63999;43.882;-0.310;2023-07-13T08:02:53;22.10;73.40
57566;DHT22;63999;43.882;-0.310;2023-07-13T08:05:22;22.10;73.40
57566;DHT22;63999;43.882;-0.310;2023-07-13T08:07:51;22.10;73.50
57566;DHT22;63999;43.882;-0.310;2023-07-13T08:10:17;22.10;73.20
57566;DHT22;63999;43.882;-0.310;2023-07-13T08:12:51;22.00;73.00
57566;DHT22;63999;43.882;-0.310;2023-07-13T08:15:22;22.00;73.20
57566;DHT22;63999;43.882;-0.310;2023-07-13T08:17:54;22.00;73.40
57566;DHT22;63999;43.882;-0.310;2023-07-13T08:20:19;22.10;73.20
57566;DHT22;63999;43.882;-0.310;2023-07-13T08:22:50;22.00;73.20
57566;DHT22;63999;43.882;-0.310;2023-07-13T08:25:26;22.00;73.10
57566;DHT22;63999;43.882;-0.310;2023-07-13T08:28:04;22.00;73.50
57566;DHT22;63999;43.882;-0.310;2023-07-13T08:30:38;22.00;73.30
57566;DHT22;63999;43.882;-0.310;2023-07-13T08:33:06;22.00;73.20
57566;DHT22;63999;43.882;-0.310;2023-07-13T08:35:37;22.00;73.40
57566;DHT22;63999;43.882;-0.310;2023-07-13T08:38:12;22.00;73.30
57566;DHT22;63999;43.882;-0.310;2023-07-13T08:40:53;22.00;73.30
57566;DHT22;63999;43.882;-0.310;2023-07-13T08:43:30;22.10;73.40
57566;DHT22;63999;43.882;-0.310;2023-07-13T08:48:50;22.10;73.20
57566;DHT22;63999;43.882;-0.310;2023-07-13T08:51:46;22.10;73.50
57566;DHT22;63999;43.882;-0.310;2023-07-13T08:54:27;22.20;73.20
57566;DHT22;63999;43.882;-0.310;2023-07-13T08:56:59;22.30;73.00
57566;DHT22;63999;43.882;-0.310;2023-07-13T08:59:33;22.20;73.20
57566;DHT22;63999;43.882;-0.310;2023-07-13T09:04:59;22.30;73.20
57566;DHT22;63999;43.882;-0.310;2023-07-13T09:07:44;22.30;73.20
57566;DHT22;63999;43.882;-0.310;2023-07-13T09:10:32;22.30;73.10
57566;DHT22;63999;43.882;-0.310;2023-07-13T09:13:22;22.40;72.90
57566;DHT22;63999;43.882;-0.310;2023-07-13T09:15:56;22.40;72.70
57566;DHT22;63999;43.882;-0.310;2023-07-13T09:18:33;22.50;73.00
57566;DHT22;63999;43.882;-0.310;2023-07-13T09:21:08;22.50;72.80
57566;DHT22;63999;43.882;-0.310;2023-07-13T09:23:41;22.50;72.60
57566;DHT22;63999;43.882;-0.310;2023-07-13T09:26:24;22.50;72.80
57566;DHT22;63999;43.882;-0.310;2023-07-13T09:29:18;22.50;72.70
57566;DHT22;63999;43.882;-0.310;2023-07-13T09:31:48;22.50;72.30
57566;DHT22;63999;43.882;-0.310;2023-07-13T09:34:17;22.50;73.00
57566;DHT22;63999;43.882;-0.310;2023-07-13T09:36:48;22.50;73.20
57566;DHT22;63999;43.882;-0.310;2023-07-13T09:39:32;22.50;73.20
57566;DHT22;63999;43.882;-0.310;2023-07-13T09:42:14;22.60;73.30
57566;DHT22;63999;43.882;-0.310;2023-07-13T09:44:55;22.60;73.30
57566;DHT22;63999;43.882;-0.310;2023-07-13T09:47:32;22.60;73.20
57566;DHT22;63999;43.882;-0.310;2023-07-13T09:50:09;22.60;73.10
57566;DHT22;63999;43.882;-0.310;2023-07-13T09:52:47;22.60;72.70
57566;DHT22;63999;43.882;-0.310;2023-07-13T09:55:37;22.60;72.80
57566;DHT22;63999;43.882;-0.310;2023-07-13T10:00:44;22.60;73.00
57566;DHT22;63999;43.882;-0.310;2023-07-13T10:03:33;22.60;73.10
57566;DHT22;63999;43.882;-0.310;2023-07-13T10:06:13;22.60;73.20
57566;DHT22;63999;43.882;-0.310;2023-07-13T10:08:39;22.60;72.90
57566;DHT22;63999;43.882;-0.310;2023-07-13T10:11:18;22.70;73.00
57566;DHT22;63999;43.882;-0.310;2023-07-13T10:14:18;22.70;73.00
57566;DHT22;63999;43.882;-0.310;2023-07-13T10:16:46;22.70;73.00
57566;DHT22;63999;43.882;-0.310;2023-07-13T10:19:21;22.70;72.80
57566;DHT22;63999;43.882;-0.310;2023-07-13T10:21:58;22.80;72.90
57566;DHT22;63999;43.882;-0.310;2023-07-13T10:24:35;22.80;73.00
57566;DHT22;63999;43.882;-0.310;2023-07-13T10:27:15;22.80;73.00
57566;DHT22;63999;43.882;-0.310;2023-07-13T10:32:37;22.80;72.80
57566;DHT22;63999;43.882;-0.310;2023-07-13T10:35:09;22.90;72.90
57566;DHT22;63999;43.882;-0.310;2023-07-13T10:38:22;22.90;72.80
57566;DHT22;63999;43.882;-0.310;2023-07-13T10:41:05;22.90;72.70
57566;DHT22;63999;43.882;-0.310;2023-07-13T10:43:45;22.90;73.00
57566;DHT22;63999;43.882;-0.310;2023-07-13T10:46:25;23.00;73.00
57566;DHT22;63999;43.882;-0.310;2023-07-13T10:49:11;23.00;72.60
57566;DHT22;63999;43.882;-0.310;2023-07-13T10:51:40;23.00;72.50
57566;DHT22;63999;43.882;-0.310;2023-07-13T10:54:20;23.00;72.40
57566;DHT22;63999;43.882;-0.310;2023-07-13T11:00:10;23.00;72.20
57566;DHT22;63999;43.882;-0.310;2023-07-13T11:02:43;23.00;71.90
57566;DHT22;63999;43.882;-0.310;2023-07-13T11:05:40;23.10;73.30
57566;DHT22;63999;43.882;-0.310;2023-07-13T11:08:20;23.10;72.70
57566;DHT22;63999;43.882;-0.310;2023-07-13T11:10:55;23.10;73.10
57566;DHT22;63999;43.882;-0.310;2023-07-13T11:16:43;23.20;72.90
57566;DHT22;63999;43.882;-0.310;2023-07-13T11:27:45;23.20;72.00
57566;DHT22;63999;43.882;-0.310;2023-07-13T11:33:17;23.20;72.50
57566;DHT22;63999;43.882;-0.310;2023-07-13T11:38:37;23.30;72.10
57566;DHT22;63999;43.882;-0.310;2023-07-13T11:41:26;23.30;73.20
57566;DHT22;63999;43.882;-0.310;2023-07-13T11:44:12;23.30;73.50
57566;DHT22;63999;43.882;-0.310;2023-07-13T11:47:00;23.30;73.00
57566;DHT22;63999;43.882;-0.310;2023-07-13T11:49:31;23.40;73.20
57566;DHT22;63999;43.882;-0.310;2023-07-13T11:51:58;23.40;72.80
57566;DHT22;63999;43.882;-0.310;2023-07-13T11:54:31;23.40;73.30
57566;DHT22;63999;43.882;-0.310;2023-07-13T11:57:06;23.40;72.30
57566;DHT22;63999;43.882;-0.310;2023-07-13T11:59:40;23.40;72.80
57566;DHT22;63999;43.882;-0.310;2023-07-13T12:02:16;23.40;72.90
57566;DHT22;63999;43.882;-0.310;2023-07-13T12:04:43;23.40;72.60
57566;DHT22;63999;43.882;-0.310;2023-07-13T12:07:19;23.50;73.30
57566;DHT22;63999;43.882;-0.310;2023-07-13T12:09:49;23.60;73.30
57566;DHT22;63999;43.882;-0.310;2023-07-13T12:12:28;23.60;73.30
57566;DHT22;63999;43.882;-0.310;2023-07-13T12:15:00;23.60;72.50
57566;DHT22;63999;43.882;-0.310;2023-07-13T12:17:26;23.60;72.60
57566;DHT22;63999;43.882;-0.310;2023-07-13T12:19:57;23.60;72.80
57566;DHT22;63999;43.882;-0.310;2023-07-13T12:22:28;23.60;72.50
57566;DHT22;63999;43.882;-0.310;2023-07-13T12:25:08;23.60;72.20
57566;DHT22;63999;43.882;-0.310;2023-07-13T12:27:45;23.60;72.40
57566;DHT22;63999;43.882;-0.310;2023-07-13T12:33:15;23.70;72.90
57566;DHT22;63999;43.882;-0.310;2023-07-13T12:35:50;23.70;73.20
57566;DHT22;63999;43.882;-0.310;2023-07-13T12:38:29;23.70;73.00
57566;DHT22;63999;43.882;-0.310;2023-07-13T12:40:55;23.80;72.70
57566;DHT22;63999;43.882;-0.310;2023-07-13T12:43:37;23.70;72.30
57566;DHT22;63999;43.882;-0.310;2023-07-13T12:46:24;23.70;72.80
57566;DHT22;63999;43.882;-0.310;2023-07-13T12:48:59;23.60;72.80
57566;DHT22;63999;43.882;-0.310;2023-07-13T12:51:27;23.70;73.30
57566;DHT22;63999;43.882;-0.310;2023-07-13T12:54:17;23.80;73.20
57566;DHT22;63999;43.882;-0.310;2023-07-13T12:56:55;23.80;72.70
57566;DHT22;63999;43.882;-0.310;2023-07-13T12:59:32;23.80;73.50
57566;DHT22;63999;43.882;-0.310;2023-07-13T13:02:30;23.80;72.90
57566;DHT22;63999;43.882;-0.310;2023-07-13T13:05:05;23.80;73.10
57566;DHT22;63999;43.882;-0.310;2023-07-13T13:07:36;23.90;73.00
57566;DHT22;63999;43.882;-0.310;2023-07-13T13:10:19;23.90;73.00
57566;DHT22;63999;43.882;-0.310;2023-07-13T13:12:51;23.90;73.20
57566;DHT22;63999;43.882;-0.310;2023-07-13T13:15:20;23.90;73.10
57566;DHT22;63999;43.882;-0.310;2023-07-13T13:17:51;23.90;73.00
57566;DHT22;63999;43.882;-0.310;2023-07-13T13:20:23;23.90;73.20
57566;DHT22;63999;43.882;-0.310;2023-07-13T13:22:56;24.00;72.70
57566;DHT22;63999;43.882;-0.310;2023-07-13T13:25:22;24.00;72.60
57566;DHT22;63999;43.882;-0.310;2023-07-13T13:27:54;24.00;72.60
57566;DHT22;63999;43.882;-0.310;2023-07-13T13:30:27;24.00;72.70
57566;DHT22;63999;43.882;-0.310;2023-07-13T13:32:56;24.00;72.90
57566;DHT22;63999;43.882;-0.310;2023-07-13T13:35:24;24.00;72.90
57566;DHT22;63999;43.882;-0.310;2023-07-13T13:37:55;24.00;73.00
57566;DHT22;63999;43.882;-0.310;2023-07-13T13:40:22;24.10;72.70
57566;DHT22;63999;43.882;-0.310;2023-07-13T13:42:53;24.00;72.50
57566;DHT22;63999;43.882;-0.310;2023-07-13T13:45:24;24.00;72.60
57566;DHT22;63999;43.882;-0.310;2023-07-13T13:47:58;24.10;72.20
57566;DHT22;63999;43.882;-0.310;2023-07-13T13:50:30;24.00;72.60
57566;DHT22;63999;43.882;-0.310;2023-07-13T13:52:59;24.00;72.60
57566;DHT22;63999;43.882;-0.310;2023-07-13T13:55:30;24.00;73.10
57566;DHT22;63999;43.882;-0.310;2023-07-13T13:58:01;24.00;73.20
57566;DHT22;63999;43.882;-0.310;2023-07-13T14:00:33;24.10;73.10
57566;DHT22;63999;43.882;-0.310;2023-07-13T14:02:59;24.10;73.00
57566;DHT22;63999;43.882;-0.310;2023-07-13T14:05:33;24.10;72.80
57566;DHT22;63999;43.882;-0.310;2023-07-13T14:08:01;24.10;72.90
57566;DHT22;63999;43.882;-0.310;2023-07-13T14:10:33;24.10;72.80
57566;DHT22;63999;43.882;-0.310;2023-07-13T14:13:01;24.10;72.90
57566;DHT22;63999;43.882;-0.310;2023-07-13T14:15:35;24.20;72.80
57566;DHT22;63999;43.882;-0.310;2023-07-13T14:18:04;24.20;72.80
57566;DHT22;63999;43.882;-0.310;2023-07-13T14:20:29;24.20;72.60
57566;DHT22;63999;43.882;-0.310;2023-07-13T14:22:58;24.20;72.80
57566;DHT22;63999;43.882;-0.310;2023-07-13T14:25:32;24.20;72.80
57566;DHT22;63999;43.882;-0.310;2023-07-13T14:27:58;24.20;72.80
57566;DHT22;63999;43.882;-0.310;2023-07-13T14:30:36;24.20;72.90
57566;DHT22;63999;43.882;-0.310;2023-07-13T14:33:13;24.20;73.00
57566;DHT22;63999;43.882;-0.310;2023-07-13T14:35:41;24.20;72.60
57566;DHT22;63999;43.882;-0.310;2023-07-13T14:38:15;24.20;72.90
57566;DHT22;63999;43.882;-0.310;2023-07-13T14:40:44;24.20;72.90
57566;DHT22;63999;43.882;-0.310;2023-07-13T14:43:15;24.20;72.80
57566;DHT22;63999;43.882;-0.310;2023-07-13T14:45:58;24.20;72.80
57566;DHT22;63999;43.882;-0.310;2023-07-13T14:48:29;24.20;72.70
57566;DHT22;63999;43.882;-0.310;2023-07-13T14:51:01;24.20;72.60
57566;DHT22;63999;43.882;-0.310;2023-07-13T14:53:28;24.20;72.90
57566;DHT22;63999;43.882;-0.310;2023-07-13T14:56:16;24.20;73.20
57566;DHT22;63999;43.882;-0.310;2023-07-13T14:58:50;24.20;72.90
57566;DHT22;63999;43.882;-0.310;2023-07-13T15:01:24;24.20;72.80
57566;DHT22;63999;43.882;-0.310;2023-07-13T15:03:53;24.20;72.90
57566;DHT22;63999;43.882;-0.310;2023-07-13T15:06:58;24.20;72.50
57566;DHT22;63999;43.882;-0.310;2023-07-13T15:09:35;24.20;73.30
57566;DHT22;63999;43.882;-0.310;2023-07-13T15:12:04;24.30;73.20
57566;DHT22;63999;43.882;-0.310;2023-07-13T15:14:34;24.30;73.10
57566;DHT22;63999;43.882;-0.310;2023-07-13T15:17:02;24.30;73.10
57566;DHT22;63999;43.882;-0.310;2023-07-13T15:19:32;24.30;73.00
57566;DHT22;63999;43.882;-0.310;2023-07-13T15:22:01;24.20;73.10
57566;DHT22;63999;43.882;-0.310;2023-07-13T15:24:30;24.30;73.30
57566;DHT22;63999;43.882;-0.310;2023-07-13T15:27:07;24.30;73.60
57566;DHT22;63999;43.882;-0.310;2023-07-13T15:29:37;24.40;73.40
57566;DHT22;63999;43.882;-0.310;2023-07-13T15:32:13;24.40;73.20
57566;DHT22;63999;43.882;-0.310;2023-07-13T15:34:45;24.40;73.00
57566;DHT22;63999;43.882;-0.310;2023-07-13T15:37:16;24.40;73.00
57566;DHT22;63999;43.882;-0.310;2023-07-13T15:39:52;24.40;73.00
57566;DHT22;63999;43.882;-0.310;2023-07-13T15:42:22;24.40;73.00
57566;DHT22;63999;43.882;-0.310;2023-07-13T15:44:57;24.40;72.80
57566;DHT22;63999;43.882;-0.310;2023-07-13T15:47:32;24.40;73.50
57566;DHT22;63999;43.882;-0.310;2023-07-13T15:50:29;24.50;73.50
57566;DHT22;63999;43.882;-0.310;2023-07-13T15:53:08;24.40;73.50
57566;DHT22;63999;43.882;-0.310;2023-07-13T15:55:38;24.40;73.30
57566;DHT22;63999;43.882;-0.310;2023-07-13T15:58:12;24.40;73.20
57566;DHT22;63999;43.882;-0.310;2023-07-13T16:00:46;24.40;73.80
57566;DHT22;63999;43.882;-0.310;2023-07-13T16:03:20;24.40;73.30
57566;DHT22;63999;43.882;-0.310;2023-07-13T16:05:51;24.50;74.50
57566;DHT22;63999;43.882;-0.310;2023-07-13T16:08:27;24.50;73.70
57566;DHT22;63999;43.882;-0.310;2023-07-13T16:10:57;24.50;73.50
57566;DHT22;63999;43.882;-0.310;2023-07-13T16:13:26;24.50;73.10
57566;DHT22;63999;43.882;-0.310;2023-07-13T16:16:00;24.50;73.50
57566;DHT22;63999;43.882;-0.310;2023-07-13T16:18:29;24.50;73.30
57566;DHT22;63999;43.882;-0.310;2023-07-13T16:21:00;24.50;73.30
57566;DHT22;63999;43.882;-0.310;2023-07-13T16:23:32;24.50;73.70
57566;DHT22;63999;43.882;-0.310;2023-07-13T16:26:03;24.50;73.60